Terminal Aerodrome Forecast
Issued by NWS Melbourne, FL

Home | Current Version | Previous Version | Text Only | Print | Product List | Glossary On
Versions: 1 2 3 4 5 6 7 8 9 10 11 12
000
FTUS42 KMLB 032329
TAFVRB
TAF
KVRB 032329Z 0400/0424 13008KT P6SM FEW035 BKN250
     FM040400 15004KT P6SM SCT250
     FM041400 16006KT P6SM SCT025
     FM041700 12009KT P6SM VCTS SCT040CB SCT100 BKN150=

USA.gov is the U.S. government's official web portal to all federal, state and local government web resources and services.